Tiempo atmosférico en la estación meteorológica de Tejeda, Cruz de Tejeda, Las Palmas (1514 m.)



Fecha
DESCASC
Temp. máxima en grados centígrados (hora)
DESCASC
Temp. mínima en grados centígrados (hora)
DESCASC
Temp. media en grados centígrados
DESCASC
Racha de viento máxima en m/sg (hora)
DESCASC
Velocidad máxima media en intervalos de 10 minutos(hora)
DESCASC
Precipitaciones diarias en mm
DESCASC
Precipitaciones de 00:00 a 06:00 en mm
DESCASC
Precipitaciones de 06:00 a 12:00 en mm
DESCASC
Precipitaciones de 12:00 a 18:00 en mm
DESCASC
Precipitaciones de 18:00 a 24:00 en mm
DESCASC
22-01-2020 7.4 (12:00) 1.5 (07:40) 4.5 6.67 (00:10) 3.06 (01:00) -- -- -- -- --
21-01-2020 5.1 (15:10) 2.1 (23:59) 3.6 8.89 (12:50) 3.33 (12:50) -- -- -- -- --
20-01-2020 10.7 (04:10) 3.4 (20:10) 7 12.78 (00:30) 8.89 (01:10) -- -- -- -- --
19-01-2020 13.6 (12:50) 8.1 (00:00) 10.9 13.61 (23:00) 8.33 (23:00) -- -- -- -- --
18-01-2020 15.1 (16:30) 8.4 (00:00) 11.8 12.22 (01:10) 7.5 (00:40) -- -- -- -- --
17-01-2020 16 (16:00) 6.2 (00:00) 11.1 10.28 (21:50) 7.78 (01:10) -- -- -- -- --
16-01-2020 13.2 (15:50) 3.8 (00:00) 8.5 9.17 (23:00) 6.94 (23:00) -- -- -- -- --
15-01-2020 12.1 (14:50) 4 (00:00) 8.1 5 (15:20) 2.5 (20:30) -- -- -- -- --
14-01-2020 12.9 (14:40) 4.5 (00:00) 8.7 7.78 (01:40) 3.33 (20:10) -- -- -- -- --
13-01-2020 12.9 (15:20) 5.6 (00:00) 9.2 12.78 (02:00) 6.39 (00:20) -- -- -- -- --
12-01-2020 12.3 (14:50) 4 (00:00) 8.2 14.17 (05:40) 8.61 (21:20) -- -- -- -- --
11-01-2020 8.6 (06:50) 3.6 (00:00) 6.1 12.78 (20:40) 7.5 (19:00) -- -- -- -- --
10-01-2020 8.2 (10:50) 5 (00:00) 6.6 19.44 (06:10) 10 (01:40) -- -- -- -- --
09-01-2020 6.1 (20:00) 4.2 (00:00) 5.1 17.5 (20:10) 7.78 (21:40) -- -- -- -- --
08-01-2020 6.4 (15:50) 4 (00:00) 5.2 16.11 (03:50) 7.5 (21:50) -- -- -- -- --
07-01-2020 6.5 (15:50) 3.8 (00:00) 5.1 17.22 (00:30) 7.5 (00:20) -- -- -- -- --
06-01-2020 6.3 (13:40) 4.2 (00:00) 5.3 21.39 (22:50) 9.17 (07:30) -- -- -- -- --
05-01-2020 12.1 (13:10) 2.9 (00:00) 7.5 12.22 (22:30) 8.06 (22:40) -- -- -- -- --
04-01-2020 12.4 (09:00) 6.5 (00:00) 9.4 7.22 (00:10) 5 (23:59) -- -- -- -- --
03-01-2020 9.7 (15:00) 4.7 (00:00) 7.2 10 (02:10) 5.56 (23:59) -- -- -- -- --
02-01-2020 11.1 (09:20) 5.2 (00:00) 8.2 9.72 (17:40) 6.67 (17:30) -- -- -- -- --
01-01-2020 12.8 (13:30) 5.8 (00:00) 9.3 13.61 (19:50) 5.56 (19:50) -- -- -- -- --
31-12-2019 17.1 (14:20) 9.3 (00:00) 13.2 10.56 (00:40) 7.5 (20:40) -- -- -- -- --
30-12-2019 -- (--) -- (--) -- -- (--) -- (--) -- -- -- -- --
29-12-2019 18.6 (15:10) 10.9 (00:00) 14.8 10.56 (03:10) 7.78 (03:10) -- -- -- -- --
28-12-2019 19 (15:50) 13.5 (00:00) 16.3 9.17 (23:20) 5.83 (23:30) -- -- -- -- --
27-12-2019 16 (16:20) 11.3 (00:00) 13.7 8.89 (19:50) 5.28 (21:50) -- -- -- -- --

Gráficas

Temp. máximas Temp. mínimas Temp. medias Precipitaciones Rachas de viento máximas Velocidades máximas media en intervalos de 10 minutos

Datos horarios

Fecha y hora oficial Temperatura (ºC) Velocidad del viento (km/h) Dirección del viento Racha (km/h) Dirección de racha Precipitación (mm) Presión (hPa) Tendencia (hPa) Humedad (%)
2020-01-25 23:00:00 4.1 9 Nordeste 27 Nordeste -- -- -- 84
2020-01-25 22:00:00 4.1 13 Nordeste 26 Norte -- -- -- 82
2020-01-25 21:00:00 5.1 3 Este 14 Oeste -- -- -- 87
2020-01-25 20:00:00 5.3 7 Norte 14 Norte -- -- -- 79
2020-01-25 19:00:00 6 6 Oeste 15 Oeste -- -- -- 84
2020-01-25 18:00:00 7.2 8 Oeste 23 Oeste -- -- -- 83
2020-01-25 17:00:00 9.7 10 Oeste 23 Oeste -- -- -- 71
2020-01-25 16:00:00 10.1 10 Oeste 21 Oeste -- -- -- 72
2020-01-25 15:00:00 10 10 Oeste 18 Oeste -- -- -- 72
2020-01-25 14:00:00 10.3 7 Oeste 20 Oeste -- -- -- 71
2020-01-25 13:00:00 9 8 Oeste 15 Oeste -- -- -- 75
2020-01-25 12:00:00 8.6 6 Oeste 14 Oeste -- -- -- 77
2020-01-25 11:00:00 7.1 4 Oeste 10 Sur -- -- -- 78
2020-01-25 10:00:00 6.3 4 Sudoeste 9 Oeste -- -- -- 81
2020-01-25 09:00:00 5 7 Oeste 19 Oeste -- -- -- 87
2020-01-25 08:00:00 4.3 4 Oeste 10 Noroeste -- -- -- 90
2020-01-25 07:00:00 4.7 4 Oeste 24 Oeste -- -- -- 91
2020-01-25 06:00:00 4.2 5 Oeste 19 Oeste -- -- -- 90
2020-01-25 05:00:00 4 5 Oeste 14 Oeste -- -- -- 87
2020-01-25 04:00:00 4.3 6 Oeste 20 Oeste -- -- -- 86
2020-01-25 03:00:00 4.7 4 Sudoeste 15 Noroeste -- -- -- 74
2020-01-25 02:00:00 4.7 5 Oeste 17 Oeste -- -- -- 76
2020-01-25 01:00:00 5.2 6 Noroeste 18 Norte -- -- -- 72
2020-01-25 00:00:00 5.1 4 Norte 18 Noroeste -- -- -- 79
2020-01-24 23:00:00 5.1 4 Oeste 17 Noroeste -- -- -- 78
2020-01-24 22:00:00 5.1 7 Oeste 22 Oeste -- -- -- 82
2020-01-24 21:00:00 5.1 7 Oeste 19 Oeste -- -- -- 86
2020-01-24 20:00:00 4.9 4 Oeste 12 Oeste -- -- -- 81
2020-01-24 19:00:00 6 3 Oeste 12 Oeste -- -- -- 87
2020-01-24 18:00:00 6.7 0 Calma 11 Sudeste -- -- -- 85
2020-01-24 17:00:00 9.7 5 Sudeste 14 Sudeste -- -- -- 72
2020-01-24 16:00:00 9.8 3 Este 10 Sudeste -- -- -- 73
2020-01-24 15:00:00 9.9 4 Este 13 Este -- -- -- 75
2020-01-24 14:00:00 8.2 4 Este 14 Este -- -- -- 84
2020-01-24 13:00:00 7.6 2 Este 14 Norte -- -- -- 80
2020-01-24 12:00:00 7.9 5 Sudeste 13 Sudeste -- -- -- 76
2020-01-24 11:00:00 8.3 3 Sudeste 13 Sudeste -- -- -- 68
2020-01-24 10:00:00 8.8 5 Sudeste 9 Este -- -- -- 50
2020-01-24 09:00:00 6 4 Este 9 Nordeste -- -- -- 57
2020-01-24 08:00:00 3.8 4 Nordeste 8 Este -- -- -- 58
2020-01-24 07:00:00 2.9 0 Calma 10 Noroeste -- -- -- 62
2020-01-24 06:00:00 4.9 6 Noroeste 16 Noroeste -- -- -- 50
2020-01-24 05:00:00 4.4 4 Noroeste 9 Noroeste -- -- -- 61
2020-01-24 04:00:00 4.2 4 Oeste 18 Norte -- -- -- 78
2020-01-24 03:00:00 4.8 8 Norte 17 Noroeste -- -- -- 79
2020-01-24 02:00:00 4.8 3 Noroeste 14 Oeste -- -- -- 61
2020-01-24 01:00:00 4.8 4 Sudoeste 19 Oeste -- -- -- 62
2020-01-24 00:00:00 4.2 4 Noroeste 6 Oeste -- -- -- 76
2020-01-23 23:00:00 3.7 2 Oeste 6 Noroeste -- -- -- 76
2020-01-23 22:00:00 4.5 4 Oeste 9 Oeste -- -- -- 82
2020-01-23 21:00:00 4.6 3 Oeste 9 Oeste -- -- -- 98
2020-01-23 20:00:00 5.1 5 Oeste 10 Oeste -- -- -- 99
2020-01-23 19:00:00 5.7 0 Calma 10 Oeste -- -- -- 99
2020-01-23 18:00:00 6.2 3 Este 10 Sudeste -- -- -- 98
2020-01-23 17:00:00 6.9 3 Sudeste 6 Sudeste -- -- -- 95
2020-01-23 16:00:00 7.3 3 Sudeste 10 Sur -- -- -- 95
2020-01-23 15:00:00 8 4 Este 9 Sudeste -- -- -- 92
2020-01-23 14:00:00 8.2 3 Sudeste 10 Sudeste -- -- -- 88
2020-01-23 13:00:00 6.9 3 Este 13 Este -- -- -- 87
2020-01-23 12:00:00 8.3 3 Sudeste 9 Este -- -- -- 79
2020-01-23 11:00:00 7.5 4 Oeste 8 Noroeste -- -- -- 68
2020-01-23 10:00:00 6.3 4 Oeste 8 Oeste -- -- -- 75
2020-01-23 09:00:00 5.9 0 Calma 8 Oeste -- -- -- 80
2020-01-23 08:00:00 4.3 3 Oeste 6 Sudoeste -- -- -- 80
2020-01-23 07:00:00 3.4 0 Calma 8 Oeste -- -- -- 81
2020-01-23 06:00:00 3.4 4 Oeste 14 Oeste -- -- -- 79
2020-01-23 05:00:00 3.6 5 Oeste 11 Oeste -- -- -- 78
2020-01-23 04:00:00 3.1 4 Oeste 10 Oeste -- -- -- 82
2020-01-23 03:00:00 3.3 3 Oeste 13 Oeste -- -- -- 81
2020-01-23 02:00:00 3.6 4 Oeste 13 Oeste -- -- -- 81
2020-01-23 01:00:00 3.2 2 Oeste 6 Noroeste -- -- -- 82
2020-01-23 00:00:00 3.5 2 Sudoeste 16 Oeste -- -- -- 83
2020-01-22 23:00:00 2.6 3 Oeste 9 Oeste -- -- -- 98
2020-01-22 22:00:00 3.6 3 Oeste 16 Oeste -- -- -- 99
2020-01-22 21:00:00 3.7 9 Oeste 15 Oeste -- -- -- 98
2020-01-22 20:00:00 3.8 4 Oeste 8 Oeste -- -- -- 96
2020-01-22 19:00:00 4.6 2 Sudoeste 13 Oeste -- -- -- 95
2020-01-22 18:00:00 5.8 4 Oeste 14 Noroeste -- -- -- 77
2020-01-22 17:00:00 5.9 3 Oeste 14 Oeste -- -- -- 78
2020-01-22 16:00:00 6 6 Oeste 15 Oeste -- -- -- 82
2020-01-22 15:00:00 5.9 6 Oeste 13 Oeste -- -- -- 81
2020-01-22 14:00:00 7.2 3 Sudeste 12 Nordeste -- -- -- 79
2020-01-22 13:00:00 6.6 4 Este 15 Oeste -- -- -- 69
2020-01-22 12:00:00 7.4 3 Sudeste 14 Oeste -- -- -- 65
2020-01-22 11:00:00 5.9 5 Oeste 10 Oeste -- -- -- 63
2020-01-22 10:00:00 5.3 4 Oeste 12 Oeste -- -- -- 69
2020-01-22 09:00:00 4.6 3 Nordeste 9 Nordeste -- -- -- 67
2020-01-22 08:00:00 1.6 0 Calma 9 Norte -- -- -- 75
2020-01-22 07:00:00 2.4 4 Norte 13 Norte -- -- -- 74
2020-01-22 06:00:00 2.3 4 Norte 11 Norte -- -- -- 73
2020-01-22 05:00:00 2.5 4 Norte 12 Nordeste -- -- -- 90
2020-01-22 04:00:00 2.1 4 Nordeste 14 Sudeste -- -- -- 93
2020-01-22 03:00:00 2.7 6 Este 19 Nordeste -- -- -- 90
2020-01-22 02:00:00 2.3 4 Este 22 Nordeste -- -- -- 96
2020-01-22 01:00:00 2.6 11 Nordeste 24 Sudeste -- -- -- 94
2020-01-22 00:00:00 2.1 7 Este 18 Sudeste -- -- -- 90
2020-01-21 23:00:00 3.2 4 Noroeste 17 Oeste -- -- -- 83
2020-01-21 22:00:00 3.8 7 Noroeste 23 Noroeste -- -- -- 82
2020-01-21 21:00:00 3.1 5 Norte 16 Norte -- -- -- 83
2020-01-21 20:00:00 3.2 4 Sudoeste 10 Oeste -- -- -- 99
2020-01-21 19:00:00 3.8 4 Sudoeste 14 Oeste -- -- -- 99
2020-01-21 18:00:00 3.5 5 Noroeste 12 Oeste -- -- -- 98
2020-01-21 17:00:00 4.2 3 Oeste 14 Oeste -- -- -- 96
2020-01-21 16:00:00 4.7 5 Oeste 17 Oeste -- -- -- 96
2020-01-21 15:00:00 4.4 6 Oeste 19 Oeste -- -- -- 88
2020-01-21 14:00:00 4.4 5 Oeste 28 Noroeste -- -- -- 85
2020-01-21 13:00:00 4.2 11 Noroeste 32 Noroeste -- -- -- 90
2020-01-21 12:00:00 3.8 4 Norte 23 Oeste -- -- -- 99
2020-01-21 11:00:00 4 4 Nordeste 17 Noroeste -- -- -- 98
2020-01-21 10:00:00 3.3 7 Sudoeste 27 Noroeste -- -- -- 99
2020-01-21 09:00:00 2.9 4 Sudoeste 17 Oeste -- -- -- 100
2020-01-21 08:00:00 2.5 8 Oeste 23 Oeste -- -- -- 100
2020-01-21 07:00:00 2.9 4 Sudoeste 21 Oeste -- -- -- 100
2020-01-21 06:00:00 2.4 5 Oeste 24 Sudoeste -- -- -- 100
2020-01-21 05:00:00 2.7 4 Oeste 23 Oeste -- -- -- 100
2020-01-21 04:00:00 2.5 7 Norte 23 Noroeste -- -- -- 100
2020-01-21 03:00:00 3.6 3 Norte 13 Noroeste -- -- -- 100
2020-01-21 02:00:00 3.7 2 Norte 18 Este -- -- -- 100
2020-01-21 01:00:00 4.3 6 Este 23 Este -- -- -- 100
2020-01-21 00:00:00 4.3 7 Este 26 Sudeste -- -- -- 100
2020-01-20 23:00:00 4.1 4 Este 29 Nordeste -- -- -- 100
2020-01-20 22:00:00 3.5 6 Este 39 Nordeste -- -- -- 100
2020-01-20 21:00:00 3.9 12 Este 40 Nordeste -- -- -- 100
2020-01-20 20:00:00 3.6 9 Nordeste 31 Nordeste -- -- -- 99
2020-01-20 19:00:00 4.6 10 Este 33 Nordeste -- -- -- 99
2020-01-20 18:00:00 4.9 8 Este 26 Nordeste -- -- -- 99
2020-01-20 17:00:00 5.4 5 Este 29 Este -- -- -- 99
2020-01-20 16:00:00 5.9 4 Nordeste 21 Norte -- -- -- 96
2020-01-20 15:00:00 7.7 5 Sudeste 19 Norte -- -- -- 92
2020-01-20 14:00:00 8 5 Nordeste 23 Este -- -- -- 97
2020-01-20 13:00:00 6.1 6 Este 26 Este -- -- -- 99
2020-01-20 12:00:00 5.7 8 Este 27 Sudeste -- -- -- 99
2020-01-20 11:00:00 5.9 8 Este 23 Este -- -- -- 99
2020-01-20 10:00:00 5.1 9 Este 34 Este -- -- -- 99
2020-01-20 09:00:00 4.4 8 Este 32 Nordeste -- -- -- 99
2020-01-20 08:00:00 3.7 8 Nordeste 36 Sudeste -- -- -- 98
2020-01-20 07:00:00 4 9 Este 31 Este -- -- -- 96
2020-01-20 06:00:00 4.6 8 Nordeste 36 Este -- -- -- 85
2020-01-20 05:00:00 4.7 13 Nordeste 28 Este -- -- -- 85
2020-01-20 04:00:00 10.5 11 Este 41 Sudeste -- -- -- 15
2020-01-20 03:00:00 9 19 Nordeste 43 Sudeste -- -- -- 25
2020-01-20 02:00:00 7.5 8 Este 44 Nordeste -- -- -- 98
2020-01-20 01:00:00 8.2 26 Nordeste 46 Nordeste -- -- -- 97
2020-01-20 00:00:00 8.1 14 Este 43 Nordeste -- -- -- 83
2020-01-19 23:00:00 9.3 30 Nordeste 49 Nordeste -- -- -- 68
2020-01-19 22:00:00 9.3 13 Este 39 Este -- -- -- 59
2020-01-19 21:00:00 9.7 14 Este 38 Nordeste -- -- -- 57
2020-01-19 20:00:00 9.5 10 Este 38 Nordeste -- -- -- 37
2020-01-19 19:00:00 11.1 17 Este 41 Este -- -- -- 25
2020-01-19 18:00:00 11.8 17 Este 32 Este -- -- -- 13
2020-01-19 17:00:00 11.4 4 Este 30 Nordeste -- -- -- 43
2020-01-19 16:00:00 12.5 4 Este 29 Este -- -- -- 33
2020-01-19 15:00:00 13.2 8 Este 26 Este -- -- -- 22
2020-01-19 14:00:00 13.3 6 Este 30 Nordeste -- -- -- 15
2020-01-19 13:00:00 13.6 5 Este 23 Este -- -- -- 17
2020-01-19 12:00:00 13.2 5 Este 33 Nordeste -- -- -- 21
2020-01-19 11:00:00 12.5 8 Este 33 Este -- -- -- 18
2020-01-19 10:00:00 12.6 5 Este 33 Este -- -- -- 17
2020-01-19 09:00:00 11.7 10 Este 36 Este -- -- -- 17
2020-01-19 08:00:00 11 20 Este 35 Este -- -- -- 12
2020-01-19 07:00:00 11 20 Este 33 Nordeste -- -- -- 12
2020-01-19 06:00:00 10.5 17 Nordeste 28 Este -- -- -- 13
2020-01-19 05:00:00 11.4 19 Nordeste 25 Este -- -- -- 8
2020-01-19 04:00:00 10.7 9 Este 27 Nordeste -- -- -- 13
2020-01-19 03:00:00 10.4 12 Este 24 Nordeste -- -- -- 13
2020-01-19 02:00:00 9.9 12 Nordeste 24 Nordeste -- -- -- 15
2020-01-19 01:00:00 9.9 5 Este 32 Este -- -- -- 11
2020-01-19 00:00:00 11 18 Este 39 Nordeste -- -- -- 6
2020-01-18 23:00:00 10.5 16 Este 34 Nordeste -- -- -- 7
2020-01-18 22:00:00 10.7 14 Este 33 Este -- -- -- 8
2020-01-18 21:00:00 10.1 11 Este 35 Nordeste -- -- -- 9
2020-01-18 20:00:00 10.2 17 Este 39 Nordeste -- -- -- 12
2020-01-18 19:00:00 11.4 22 Nordeste 30 Nordeste -- -- -- 17
2020-01-18 18:00:00 12.8 9 Este 23 Nordeste -- -- -- 19
2020-01-18 17:00:00 14.6 9 Este 18 Nordeste -- -- -- 18
2020-01-18 16:00:00 15 8 Este 18 Nordeste -- -- -- 20
2020-01-18 15:00:00 13.8 4 Este 19 Nordeste -- -- -- 25
2020-01-18 14:00:00 13.4 6 Este 21 Nordeste -- -- -- 29
2020-01-18 13:00:00 13.9 9 Este 24 Nordeste -- -- -- 27
2020-01-18 12:00:00 12.4 4 Este 18 Nordeste -- -- -- 28
2020-01-18 11:00:00 12.1 4 Este 40 Este -- -- -- 24
2020-01-18 10:00:00 11.4 17 Este 40 Este -- -- -- 16
2020-01-18 09:00:00 10.8 21 Este 36 Este -- -- -- 17
2020-01-18 08:00:00 8.8 14 Este 31 Este -- -- -- 22
2020-01-18 07:00:00 8.7 12 Este 31 Nordeste -- -- -- 20
2020-01-18 06:00:00 9.9 18 Este 31 Este -- -- -- 14
2020-01-18 05:00:00 8.6 11 Este 27 Este -- -- -- 22
2020-01-18 04:00:00 9.1 12 Este 40 Nordeste -- -- -- 23
2020-01-18 03:00:00 9.5 19 Este 43 Este -- -- -- 22
2020-01-18 02:00:00 9.8 16 Este 44 Nordeste -- -- -- 20
2020-01-18 01:00:00 9.9 23 Este 44 Este -- -- -- 15
2020-01-18 00:00:00 10.3 16 Este 36 Este -- -- -- 13
2020-01-17 23:00:00 10.3 16 Este 36 Nordeste -- -- -- 14
2020-01-17 22:00:00 9.6 22 Este 37 Nordeste -- -- -- 18
2020-01-17 21:00:00 11.3 21 Este 35 Nordeste -- -- -- 11
2020-01-17 20:00:00 11.5 23 Este 34 Este -- -- -- 9
2020-01-17 19:00:00 11.6 20 Este 29 Nordeste -- -- -- 9
2020-01-17 18:00:00 12.6 12 Este 26 Nordeste -- -- -- 9
2020-01-17 17:00:00 13.7 4 Este 16 Nordeste -- -- -- 17
2020-01-17 16:00:00 16 2 Este 9 Oeste -- -- -- 42
2020-01-17 15:00:00 14.9 2 Este 9 Sudeste -- -- -- 48
2020-01-17 14:00:00 14 3 Oeste 9 Este -- -- -- 23
2020-01-17 13:00:00 11.8 3 Este 12 Este -- -- -- 48
2020-01-17 12:00:00 12.4 3 Este 15 Este -- -- -- 40
2020-01-17 11:00:00 11.5 8 Este 24 Este -- -- -- 23
2020-01-17 10:00:00 11.3 10 Este 33 Este -- -- -- 20
2020-01-17 09:00:00 11 15 Este 33 Nordeste -- -- -- 10
2020-01-17 08:00:00 9.6 16 Nordeste 24 Nordeste -- -- -- 8
2020-01-17 07:00:00 10 15 Este 28 Nordeste -- -- -- 7
2020-01-17 06:00:00 10.4 16 Este 27 Este -- -- -- 6
2020-01-17 05:00:00 10.5 13 Este 27 Este -- -- -- 6
2020-01-17 04:00:00 9.8 20 Nordeste 35 Nordeste -- -- -- 6
2020-01-17 03:00:00 9.8 19 Nordeste 32 Nordeste -- -- -- 5
2020-01-17 02:00:00 9.2 23 Este 35 Este -- -- -- 8
2020-01-17 01:00:00 8 27 Nordeste 33 Nordeste -- -- -- 13
2020-01-17 00:00:00 6.9 23 Nordeste 32 Nordeste -- -- -- 28
2020-01-16 23:00:00 10.2 25 Nordeste 33 Nordeste -- -- -- 6
2020-01-16 22:00:00 9.8 18 Este 28 Nordeste -- -- -- 7
2020-01-16 21:00:00 9.1 12 Este 24 Este -- -- -- 12
2020-01-16 20:00:00 7.5 10 Este 21 Nordeste -- -- -- 33
2020-01-16 19:00:00 7.6 13 Este 21 Este -- -- -- 50
2020-01-16 18:00:00 6.9 0 Calma 5 Sudeste -- -- -- 61
2020-01-16 17:00:00 9.4 0 Calma 7 Este -- -- -- 56
2020-01-16 16:00:00 11.7 3 Este 10 Sudeste -- -- -- 56
2020-01-16 15:00:00 11.8 6 Sudeste 15 Este -- -- -- 61
2020-01-16 14:00:00 11.5 6 Este 17 Este -- -- -- 61
2020-01-16 13:00:00 12.7 4 Sudeste 13 Este -- -- -- 52
2020-01-16 12:00:00 11 3 Este 12 Sudeste -- -- -- 38
2020-01-16 11:00:00 10.6 3 Sudeste 10 Sudeste -- -- -- 36
2020-01-16 10:00:00 9.5 3 Este 9 Este -- -- -- 30
2020-01-16 09:00:00 8.2 4 Oeste 5 Oeste -- -- -- 27
2020-01-16 08:00:00 5.7 0 Calma 4 Oeste -- -- -- 18
2020-01-16 07:00:00 5.4 4 Oeste 10 Nordeste -- -- -- 32
2020-01-16 06:00:00 5.1 7 Nordeste 10 Nordeste -- -- -- 39
2020-01-16 05:00:00 5.5 3 Oeste 13 Oeste -- -- -- 33
2020-01-16 04:00:00 6.9 7 Oeste 12 Oeste -- -- -- 24
2020-01-16 03:00:00 5.4 0 Calma 11 Nordeste -- -- -- 33
2020-01-16 02:00:00 6.8 5 Nordeste 10 Oeste -- -- -- 19
2020-01-16 01:00:00 6.3 3 Oeste 8 Oeste -- -- -- 23
2020-01-16 00:00:00 7.2 5 Oeste 10 Oeste -- -- -- 19
2020-01-15 23:00:00 7.7 6 Oeste 8 Oeste -- -- -- 18
2020-01-15 22:00:00 6.1 2 Noroeste 9 Nordeste -- -- -- 23
2020-01-15 21:00:00 6.5 7 Nordeste 14 Nordeste -- -- -- 59
2020-01-15 20:00:00 6 0 Calma 9 Nordeste -- -- -- 62
2020-01-15 19:00:00 5.7 0 Calma 5 Nordeste -- -- -- 82
2020-01-15 18:00:00 6.2 0 Calma 9 Oeste -- -- -- 85
2020-01-15 17:00:00 10.8 2 Sudeste 10 Sudeste -- -- -- 60
2020-01-15 16:00:00 12 4 Sudeste 18 Oeste -- -- -- 50
2020-01-15 15:00:00 11.8 8 Oeste 18 Oeste -- -- -- 41
2020-01-15 14:00:00 11.2 3 Sudeste 13 Oeste -- -- -- 51
2020-01-15 13:00:00 11.1 6 Sudoeste 15 Oeste -- -- -- 31
2020-01-15 12:00:00 10.3 5 Sudeste 12 Sudeste -- -- -- 41
2020-01-15 11:00:00 10.1 4 Sudeste 9 Este -- -- -- 36
2020-01-15 10:00:00 8.8 2 Este 10 Sudeste -- -- -- 29
2020-01-15 09:00:00 7.4 5 Oeste 12 Sur -- -- -- 31
2020-01-15 08:00:00 4.9 3 Oeste 11 Sudoeste -- -- -- 37
2020-01-15 07:00:00 4 0 Calma 8 Nordeste -- -- -- 37
2020-01-15 06:00:00 4.8 2 Nordeste 9 Noroeste -- -- -- 34
2020-01-15 05:00:00 4.8 3 Nordeste 9 Nordeste -- -- -- 38
2020-01-15 04:00:00 4.6 3 Nordeste 13 Noroeste -- -- -- 42
2020-01-15 03:00:00 5.1 4 Oeste 10 Sudoeste -- -- -- 43
2020-01-15 02:00:00 5.3 4 Oeste 12 Oeste -- -- -- 42
2020-01-15 01:00:00 6 7 Noroeste 12 Noroeste -- -- -- 30
2020-01-15 00:00:00 4.6 0 Calma 9 Oeste -- -- -- 43
2020-01-14 23:00:00 6.1 4 Oeste 13 Nordeste -- -- -- 26
2020-01-14 22:00:00 7.2 8 Nordeste 13 Nordeste -- -- -- 23
2020-01-14 21:00:00 6.8 8 Nordeste 15 Nordeste -- -- -- 49
2020-01-14 20:00:00 6.8 9 Nordeste 15 Norte -- -- -- 51
2020-01-14 19:00:00 6.5 0 Calma 9 Sudoeste -- -- -- 48
2020-01-14 18:00:00 7.3 3 Sur 17 Sudeste -- -- -- 54
2020-01-14 17:00:00 10.6 3 Sudeste 9 Sudeste -- -- -- 63
2020-01-14 16:00:00 12.3 5 Sudeste 12 Sudeste -- -- -- 54
2020-01-14 15:00:00 12.5 4 Sudeste 12 Sudeste -- -- -- 46
2020-01-14 14:00:00 11.9 9 Sudeste 18 Sudeste -- -- -- 45
2020-01-14 13:00:00 10.4 5 Sudoeste 14 Oeste -- -- -- 43
2020-01-14 12:00:00 9.1 7 Oeste 18 Noroeste -- -- -- 46
2020-01-14 11:00:00 8.4 5 Oeste 14 Oeste -- -- -- 49
2020-01-14 10:00:00 8.2 5 Sudoeste 13 Sur -- -- -- 42
2020-01-14 09:00:00 8.4 2 Este 8 Noroeste -- -- -- 40
2020-01-14 08:00:00 5.3 7 Noroeste 12 Noroeste -- -- -- 47
2020-01-14 07:00:00 5.2 4 Oeste 7 Noroeste -- -- -- 46
2020-01-14 06:00:00 4.5 3 Noroeste 5 Noroeste -- -- -- 48
2020-01-14 05:00:00 5.5 5 Noroeste 11 Sudeste -- -- -- 47
2020-01-14 04:00:00 5.7 3 Sur 21 Sudeste -- -- -- 45
2020-01-14 03:00:00 6.6 7 Sudeste 23 Sur -- -- -- 43
2020-01-14 02:00:00 6.9 8 Sur 28 Sudoeste -- -- -- 42
2020-01-14 01:00:00 6.8 4 Este 21 Sur -- -- -- 43
2020-01-14 00:00:00 7.2 4 Sudeste 19 Sudeste -- -- -- 40
2020-01-13 23:00:00 7.1 6 Sur 20 Oeste -- -- -- 40
2020-01-13 22:00:00 6.8 5 Oeste 17 Sudeste -- -- -- 40
2020-01-13 21:00:00 6.6 5 Sudeste 23 Sudeste -- -- -- 42
2020-01-13 20:00:00 6.9 8 Sur 22 Sudeste -- -- -- 60
2020-01-13 19:00:00 6.8 8 Sudeste 22 Sudeste -- -- -- 64
2020-01-13 18:00:00 8.4 5 Sudoeste 22 Sur -- -- -- 61
2020-01-13 17:00:00 11 7 Sur 23 Sur -- -- -- 54
2020-01-13 16:00:00 12.8 5 Sur 21 Sur -- -- -- 53
2020-01-13 15:00:00 12.8 6 Sur 23 Sudeste -- -- -- 49
2020-01-13 14:00:00 11.2 9 Sur 19 Sur -- -- -- 61
2020-01-13 13:00:00 11.2 8 Sur 19 Sudeste -- -- -- 55
2020-01-13 12:00:00 12.1 5 Sudeste 10 Sudeste -- -- -- 58
2020-01-13 11:00:00 10.1 4 Oeste 10 Oeste -- -- -- 58
2020-01-13 10:00:00 9.3 4 Oeste 12 Noroeste -- -- -- 49
2020-01-13 09:00:00 8.8 4 Oeste 10 Nordeste -- -- -- 51
2020-01-13 08:00:00 6.2 5 Nordeste 17 Este -- -- -- 64
2020-01-13 07:00:00 6.5 8 Este 19 Este -- -- -- 66
2020-01-13 06:00:00 6.4 4 Este 27 Este -- -- -- 67
2020-01-13 05:00:00 5.8 14 Este 32 Nordeste -- -- -- 67
2020-01-13 04:00:00 6 13 Este 36 Este -- -- -- 62
2020-01-13 03:00:00 6.2 14 Este 40 Nordeste -- -- -- 59
2020-01-13 02:00:00 6.3 18 Este 46 Este -- -- -- 53
2020-01-13 01:00:00 6.3 18 Este 44 Este -- -- -- 49
2020-01-13 00:00:00 6.5 19 Este 46 Nordeste -- -- -- 49
2020-01-12 23:00:00 7.2 21 Este 47 Nordeste -- -- -- 42
2020-01-12 22:00:00 7.1 21 Este 42 Nordeste -- -- -- 37
2020-01-12 21:00:00 7.6 26 Este 40 Nordeste -- -- -- 34
2020-01-12 20:00:00 6.9 27 Este 43 Este -- -- -- 40
2020-01-12 19:00:00 5.7 5 Este 15 Nordeste -- -- -- 66
2020-01-12 18:00:00 7.9 6 Oeste 19 Oeste -- -- -- 95
2020-01-12 17:00:00 11.5 8 Oeste 20 Oeste -- -- -- 79
2020-01-12 16:00:00 11.7 9 Oeste 17 Oeste -- -- -- 79
2020-01-12 15:00:00 10.7 3 Este 12 Oeste -- -- -- 89
2020-01-12 14:00:00 7.1 2 Este 13 Este -- -- -- 100
2020-01-12 13:00:00 6.3 4 Este 20 Nordeste -- -- -- 100
2020-01-12 12:00:00 6 12 Nordeste 28 Nordeste -- -- -- 100
2020-01-12 11:00:00 5.3 6 Este 24 Nordeste -- -- -- 100
2020-01-12 10:00:00 4.8 11 Este 30 Nordeste -- -- -- 100
2020-01-12 09:00:00 4.6 9 Este 32 Nordeste -- -- -- 100
2020-01-12 08:00:00 4 19 Este 41 Nordeste -- -- -- 100
2020-01-12 07:00:00 4 8 Este 48 Nordeste -- -- -- 100
2020-01-12 06:00:00 5 11 Este 51 Este -- -- -- 100
2020-01-12 05:00:00 5 10 Este 44 Este -- -- -- 100
2020-01-12 04:00:00 4.5 8 Este 46 Nordeste -- -- -- 100
2020-01-12 03:00:00 5.4 8 Este 36 Nordeste -- -- -- 100
2020-01-12 02:00:00 5.2 9 Este 45 Nordeste -- -- -- 100
2020-01-12 01:00:00 5.4 14 Nordeste 43 Nordeste -- -- -- 100
2020-01-12 00:00:00 4.8 8 Este 41 Este -- -- -- 100
2020-01-11 23:00:00 5.5 9 Este 42 Sudeste -- -- -- 100
2020-01-11 22:00:00 5.6 11 Este 42 Sudeste -- -- -- 100
2020-01-11 21:00:00 5.3 15 Este 46 Sudeste -- -- -- 100
2020-01-11 20:00:00 4.7 8 Este 43 Este -- -- -- 100
2020-01-11 19:00:00 5.3 27 Nordeste 40 Nordeste -- -- -- 100
2020-01-11 18:00:00 6 26 Nordeste 44 Nordeste -- -- -- 100
2020-01-11 17:00:00 6.4 14 Este 43 Nordeste -- -- -- 100
2020-01-11 16:00:00 6.3 9 Este 30 Nordeste -- -- -- 100
2020-01-11 15:00:00 6.5 5 Este 23 Nordeste -- -- -- 100
2020-01-11 14:00:00 6.9 7 Este 25 Este -- -- -- 100
2020-01-11 13:00:00 6.7 5 Este 18 Nordeste -- -- -- 100
2020-01-11 12:00:00 6.9 5 Este 28 Nordeste -- -- -- 100
2020-01-11 11:00:00 6.3 5 Este 25 Nordeste -- -- -- 100
2020-01-11 10:00:00 5.4 5 Este 24 Este -- -- -- 100
2020-01-11 09:00:00 4.4 3 Este 27 Nordeste -- -- -- 98
2020-01-11 08:00:00 7.6 21 Nordeste 28 Nordeste -- -- -- 42
2020-01-11 07:00:00 7.3 17 Nordeste 33 Nordeste -- -- -- 59
2020-01-11 06:00:00 3.9 15 Nordeste 31 Nordeste -- -- -- 100
2020-01-11 05:00:00 4.5 10 Este 27 Nordeste -- -- -- 100
2020-01-11 04:00:00 4.9 18 Este 29 Nordeste -- -- -- 100
2020-01-11 03:00:00 5 11 Este 31 Nordeste -- -- -- 100
2020-01-11 02:00:00 5.5 4 Este 32 Este -- -- -- 100
2020-01-11 01:00:00 7.1 22 Nordeste 42 Este -- -- -- 100
2020-01-11 00:00:00 6.2 14 Este 42 Nordeste -- -- -- 100
2020-01-10 23:00:00 5.9 8 Este 41 Sudeste -- -- -- 100
2020-01-10 22:00:00 6 8 Este 48 Nordeste -- -- -- 100
2020-01-10 21:00:00 6.1 23 Nordeste 47 Nordeste -- -- -- 100
2020-01-10 20:00:00 5.6 10 Sudeste 44 Este -- -- -- 100
2020-01-10 19:00:00 5.7 11 Este 52 Sudeste -- -- -- 100
2020-01-10 18:00:00 6.6 14 Este 50 Este -- -- -- 100
2020-01-10 17:00:00 6.6 10 Este 40 Este -- -- -- 100
2020-01-10 16:00:00 7.2 6 Este 49 Sudeste -- -- -- 100
2020-01-10 15:00:00 6.9 12 Este 52 Este -- -- -- 100
2020-01-10 14:00:00 6.5 11 Este 52 Nordeste -- -- -- 100
2020-01-10 13:00:00 7 6 Este 44 Este -- -- -- 100
2020-01-10 12:00:00 7.1 13 Este 59 Sudeste -- -- -- 100
2020-01-10 11:00:00 8.2 27 Este 60 Este -- -- -- 100
2020-01-10 10:00:00 7.9 13 Sudeste 46 Este -- -- -- 100
2020-01-10 09:00:00 7.5 10 Este 43 Sudeste -- -- -- 100
2020-01-10 08:00:00 7.2 19 Sudeste 60 Este -- -- -- 100
2020-01-10 07:00:00 7.1 32 Este 70 Sudeste -- -- -- 100
2020-01-10 06:00:00 6.3 25 Sudeste 58 Sudeste -- -- -- 100
2020-01-10 05:00:00 6.2 22 Este 57 Sudeste -- -- -- 100
2020-01-10 04:00:00 5.9 22 Este 55 Sudeste -- -- -- 100
2020-01-10 03:00:00 5.9 19 Este 59 Este -- -- -- 100
2020-01-10 02:00:00 6.1 21 Este 57 Nordeste -- -- -- 100
2020-01-10 01:00:00 5.2 21 Este 60 Sudeste -- -- -- 100
2020-01-10 00:00:00 5 19 Este 62 Este -- -- -- 100
2020-01-09 23:00:00 5.4 19 Este 63 Sudeste -- -- -- 100
2020-01-09 22:00:00 5.6 26 Este 60 Este -- -- -- 100
2020-01-09 21:00:00 4.9 18 Este 63 Sudeste -- -- -- 100
2020-01-09 20:00:00 6.1 22 Este 55 Sudeste -- -- -- 100
2020-01-09 19:00:00 5.5 13 Este 52 Este -- -- -- 100
2020-01-09 18:00:00 5.5 19 Nordeste 44 Nordeste -- -- -- 100
2020-01-09 17:00:00 5.8 15 Este 48 Este -- -- -- 100
2020-01-09 16:00:00 5.9 10 Este 46 Este -- -- -- 100
2020-01-09 15:00:00 5.6 18 Este 56 Este -- -- -- 100
2020-01-09 14:00:00 5.7 16 Este 51 Este -- -- -- 100
2020-01-09 13:00:00 5.5 18 Este 49 Este -- -- -- 100
2020-01-09 12:00:00 5.6 9 Este 48 Nordeste -- -- -- 100
2020-01-09 11:00:00 6 10 Este 53 Este -- -- -- 100
2020-01-09 10:00:00 5.1 14 Este 46 Sudeste -- -- -- 100
2020-01-09 09:00:00 5 10 Este 47 Este -- -- -- 100
2020-01-09 08:00:00 4.4 13 Este 51 Sudeste -- -- -- 100
2020-01-09 07:00:00 5.2 13 Este 50 Sudeste -- -- -- 100
2020-01-09 06:00:00 4.7 17 Este 47 Este -- -- -- 100
2020-01-09 05:00:00 4.7 10 Este 44 Sudeste -- -- -- 100
2020-01-09 04:00:00 4.5 11 Este 44 Este -- -- -- 100
2020-01-09 03:00:00 4.4 13 Este 48 Sudeste -- -- -- 100
2020-01-09 02:00:00 4.3 9 Este 45 Sudeste -- -- -- 100
2020-01-09 01:00:00 5.1 17 Este 44 Sudeste -- -- -- 100
2020-01-09 00:00:00 5.4 13 Este 40 Nordeste -- -- -- 100
2020-01-08 23:00:00 5.1 15 Este 46 Nordeste -- -- -- 100
2020-01-08 22:00:00 4.6 14 Este 51 Nordeste -- -- -- 100
2020-01-08 21:00:00 4.8 17 Este 51 Sudeste -- -- -- 100
2020-01-08 20:00:00 4.7 15 Este 52 Nordeste -- -- -- 100
2020-01-08 19:00:00 5.3 12 Este 41 Este -- -- -- 100
2020-01-08 18:00:00 5.7 8 Este 41 Este -- -- -- 99
2020-01-08 17:00:00 5.4 7 Este 34 Este -- -- -- 97
2020-01-08 16:00:00 6.2 8 Este 33 Sudeste -- -- -- 98
2020-01-08 15:00:00 5.9 13 Este 27 Nordeste -- -- -- 100
2020-01-08 14:00:00 5.3 16 Nordeste 36 Sudeste -- -- -- 100
2020-01-08 13:00:00 5.3 7 Este 33 Este -- -- -- 100
2020-01-08 12:00:00 5.7 5 Este 28 Nordeste -- -- -- 100
2020-01-08 11:00:00 4.9 12 Este 35 Nordeste -- -- -- 100
2020-01-08 10:00:00 4.9 7 Este 45 Nordeste -- -- -- 100
2020-01-08 09:00:00 4.9 13 Este 46 Nordeste -- -- -- 100
2020-01-08 08:00:00 4.3 13 Este 48 Este -- -- -- 100
2020-01-08 07:00:00 4.3 10 Este 53 Este -- -- -- 100
2020-01-08 06:00:00 4.2 14 Este 52 Nordeste -- -- -- 100
2020-01-08 05:00:00 4.7 12 Este 57 Sudeste -- -- -- 100
2020-01-08 04:00:00 4.6 14 Este 58 Este -- -- -- 100
2020-01-08 03:00:00 4.5 17 Este 50 Este -- -- -- 100
2020-01-08 02:00:00 4.8 11 Este 50 Nordeste -- -- -- 100
2020-01-08 01:00:00 4.9 14 Este 46 Sudeste -- -- -- 100
2020-01-08 00:00:00 4.3 13 Este 46 Sudeste -- -- -- 100
2020-01-07 23:00:00 4.5 16 Este 55 Este -- -- -- 100
2020-01-07 22:00:00 5.1 13 Este 53 Sudeste -- -- -- 100
2020-01-07 21:00:00 5.1 14 Este 51 Este -- -- -- 99
2020-01-07 20:00:00 4.6 12 Este 39 Nordeste -- -- -- 99
2020-01-07 19:00:00 4.7 11 Este 40 Nordeste -- -- -- 95
2020-01-07 18:00:00 4.7 15 Este 35 Nordeste -- -- -- 90
2020-01-07 17:00:00 5.9 5 Este 25 Este -- -- -- 76
2020-01-07 16:00:00 5.8 4 Este 29 Este -- -- -- 86
2020-01-07 15:00:00 5.6 4 Este 25 Nordeste -- -- -- 90
2020-01-07 14:00:00 5.2 5 Este 35 Este -- -- -- 99
2020-01-07 13:00:00 5 6 Este 34 Este -- -- -- 100
2020-01-07 12:00:00 4.7 10 Este 40 Este -- -- -- 100
2020-01-07 11:00:00 4.5 10 Este 39 Nordeste -- -- -- 100
2020-01-07 10:00:00 4.2 12 Este 56 Este -- -- -- 100
2020-01-07 09:00:00 4.3 9 Este 49 Este -- -- -- 100
2020-01-07 08:00:00 4.3 10 Este 41 Este -- -- -- 100
2020-01-07 07:00:00 4.3 8 Este 55 Este -- -- -- 100
2020-01-07 06:00:00 4.7 10 Este 55 Nordeste -- -- -- 100
2020-01-07 05:00:00 5 15 Este 50 Este -- -- -- 100
2020-01-07 04:00:00 4.6 18 Este 55 Este -- -- -- 100
2020-01-07 03:00:00 5.2 13 Este 60 Sudeste -- -- -- 100
2020-01-07 02:00:00 5 18 Este 52 Este -- -- -- 100
2020-01-07 01:00:00 5.1 20 Este 62 Sudeste -- -- -- 100
2020-01-07 00:00:00 4.6 20 Este 73 Este -- -- -- 100
2020-01-06 23:00:00 5.1 25 Este 77 Sudeste -- -- -- 100
2020-01-06 22:00:00 5.3 18 Este 59 Este -- -- -- 100
2020-01-06 21:00:00 5.8 21 Este 55 Este -- -- -- 100
2020-01-06 20:00:00 5.7 11 Este 63 Sudeste -- -- -- 99
2020-01-06 19:00:00 5.2 15 Este 47 Sudeste -- -- -- 99
2020-01-06 18:00:00 5.4 23 Sudeste 53 Sudeste -- -- -- 98
2020-01-06 17:00:00 5.8 18 Este 48 Sudeste -- -- -- 96
2020-01-06 16:00:00 6.2 15 Este 47 Sudeste -- -- -- 96
2020-01-06 15:00:00 6.1 13 Este 45 Este -- -- -- 96
2020-01-06 14:00:00 6.2 13 Este 37 Sudeste -- -- -- 98
2020-01-06 13:00:00 5.6 19 Este 44 Sudeste -- -- -- 100
2020-01-06 12:00:00 5.5 13 Este 50 Este -- -- -- 100
2020-01-06 11:00:00 4.9 22 Nordeste 57 Este -- -- -- 99
2020-01-06 10:00:00 5.2 17 Este 54 Este -- -- -- 100
2020-01-06 09:00:00 4.5 18 Este 54 Sudeste -- -- -- 99